Time;durP1;ratioP1;P1;durP2;ratioP2;P2;SDS_P1;SDS_P2;PMS_P1;PMS_P2;Temp;Humidity;BMP_temperature;BMP_pressure;BME280_temperature;BME280_humidity;BME280_pressure;Samples;Min_cycle;Max_cycle;Signal;HPM_P1;HPM_P2
2022/06/02 00:01:47;;;;;;;;;;;10.10;99.90;;;;;;5082021;28;19912;-67
2022/06/02 00:04:12;;;;;;;;;;;10.10;99.90;;;;;;5083015;28;19916;-66
2022/06/02 00:06:38;;;;;;;;;;;10.10;99.90;;;;;;5083497;28;19912;-66
2022/06/02 00:09:10;;;;;;;;;;;10.10;99.90;;;;;;5098999;28;19968;-67
2022/06/02 00:11:42;;;;;;;;;;;10.00;99.90;;;;;;5096020;28;20009;-67
2022/06/02 00:14:19;;;;;;;;;;;9.90;99.90;;;;;;5084843;28;19913;-66
2022/06/02 00:17:07;;;;;;;;;;;9.90;99.90;;;;;;5086608;28;19942;-67
2022/06/02 00:19:33;;;;;;;;;;;9.70;99.90;;;;;;5087857;28;19972;-68
2022/06/02 00:22:17;;;;;;;;;;;9.60;99.90;;;;;;5091080;28;19983;-67
2022/06/02 00:24:53;;;;;;;;;;;9.50;99.90;;;;;;5086461;28;19919;-68
2022/06/02 00:27:21;;;;;;;;;;;9.50;99.90;;;;;;5072292;28;19912;-66
2022/06/02 00:30:03;;;;;;;;;;;9.40;99.90;;;;;;5093588;28;19912;-67
2022/06/02 00:32:47;;;;;;;;;;;9.40;99.90;;;;;;5089553;28;19912;-67
2022/06/02 00:35:27;;;;;;;;;;;9.40;99.90;;;;;;5091553;28;19912;-66
2022/06/02 00:38:01;;;;;;;;;;;9.40;99.90;;;;;;5087682;28;19982;-65
2022/06/02 00:40:27;;;;;;;;;;;9.30;99.90;;;;;;5059302;28;19927;-66
2022/06/02 00:42:57;;;;;;;;;;;9.40;99.90;;;;;;5072697;28;19924;-65
2022/06/02 00:45:23;;;;;;;;;;;9.40;99.90;;;;;;5092963;28;20240;-66
2022/06/02 00:47:50;;;;;;;;;;;9.30;99.90;;;;;;5088499;28;19920;-65
2022/06/02 00:50:35;;;;;;;;;;;9.30;99.90;;;;;;5091624;28;19915;-66
2022/06/02 00:53:03;;;;;;;;;;;9.30;99.90;;;;;;5091145;28;20024;-67
2022/06/02 00:58:38;;;;;;;;;;;9.30;99.90;;;;;;5089332;28;19919;-66
2022/06/02 01:01:08;;;;;;;;;;;9.20;99.90;;;;;;5090293;28;19919;-66
2022/06/02 01:03:42;;;;;;;;;;;9.10;99.90;;;;;;5092918;28;19915;-64
2022/06/02 01:06:23;;;;;;;;;;;9.00;99.90;;;;;;5091411;28;19916;-65
2022/06/02 01:09:07;;;;;;;;;;;9.00;99.90;;;;;;5078122;28;19922;-66
2022/06/02 01:11:48;;;;;;;;;;;9.00;99.90;;;;;;5093057;28;19920;-66
2022/06/02 01:14:19;;;;;;;;;;;8.90;99.90;;;;;;5097016;28;19919;-64
2022/06/02 01:17:10;;;;;;;;;;;8.80;99.90;;;;;;5094467;28;19962;-66
2022/06/02 01:19:51;;;;;;;;;;;8.70;99.90;;;;;;5089139;28;20002;-65
2022/06/02 01:22:23;;;;;;;;;;;8.70;99.90;;;;;;5092594;28;19958;-65
2022/06/02 01:24:51;;;;;;;;;;;8.60;99.90;;;;;;5093056;28;19972;-65
2022/06/02 01:27:56;;;;;;;;;;;8.60;99.90;;;;;;5093785;28;19920;-65
2022/06/02 01:30:39;;;;;;;;;;;8.60;99.90;;;;;;4997331;28;19925;-65
2022/06/02 01:33:07;;;;;;;;;;;8.50;99.90;;;;;;5006736;28;19940;-66
2022/06/02 01:35:51;;;;;;;;;;;8.50;99.90;;;;;;5046042;28;19916;-65
2022/06/02 01:38:40;;;;;;;;;;;8.40;99.90;;;;;;5099337;28;19916;-66
2022/06/02 01:41:18;;;;;;;;;;;8.40;99.90;;;;;;5095630;28;19916;-66
2022/06/02 01:43:54;;;;;;;;;;;8.30;99.90;;;;;;5088288;28;19970;-67
2022/06/02 01:46:19;;;;;;;;;;;8.30;99.90;;;;;;5088012;28;19923;-66
2022/06/02 01:48:57;;;;;;;;;;;8.20;99.90;;;;;;5076036;28;19920;-65
2022/06/02 01:51:34;;;;;;;;;;;8.30;99.90;;;;;;5086971;28;19916;-66
2022/06/02 01:53:59;;;;;;;;;;;8.30;99.90;;;;;;5081854;28;19962;-66
2022/06/02 01:56:25;;;;;;;;;;;8.20;99.90;;;;;;5087262;28;19973;-65
2022/06/02 01:58:53;;;;;;;;;;;8.30;99.90;;;;;;5088664;28;19912;-65
2022/06/02 02:01:42;;;;;;;;;;;8.30;99.90;;;;;;5086960;28;19920;-66
2022/06/02 02:04:43;;;;;;;;;;;8.30;99.90;;;;;;5054091;28;20382;-65
2022/06/02 02:07:14;;;;;;;;;;;8.30;99.90;;;;;;5032903;28;20279;-66
2022/06/02 02:09:49;;;;;;;;;;;8.20;99.90;;;;;;5067393;28;20312;-67
2022/06/02 02:12:24;;;;;;;;;;;8.20;99.90;;;;;;5085263;28;19912;-66
2022/06/02 02:15:12;;;;;;;;;;;8.20;99.90;;;;;;5083770;28;20388;-67
2022/06/02 02:17:41;;;;;;;;;;;8.10;99.90;;;;;;5086346;28;19919;-66
2022/06/02 02:20:27;;;;;;;;;;;8.10;99.90;;;;;;5085742;28;19919;-67
2022/06/02 02:22:53;;;;;;;;;;;8.10;99.90;;;;;;5083207;28;20073;-66
2022/06/02 02:25:36;;;;;;;;;;;8.10;99.90;;;;;;5084269;28;20010;-66
2022/06/02 02:28:07;;;;;;;;;;;8.10;99.90;;;;;;5064237;28;19912;-66
2022/06/02 02:30:39;;;;;;;;;;;8.10;99.90;;;;;;5082948;28;19916;-66
2022/06/02 02:33:14;;;;;;;;;;;8.10;99.90;;;;;;5093762;28;19912;-66
2022/06/02 02:35:39;;;;;;;;;;;8.00;99.90;;;;;;5090819;28;19935;-67
2022/06/02 02:38:10;;;;;;;;;;;8.10;99.90;;;;;;5092134;28;19912;-67
2022/06/02 02:40:41;;;;;;;;;;;8.00;99.90;;;;;;5100611;28;19923;-66
2022/06/02 02:43:09;;;;;;;;;;;8.00;99.90;;;;;;5093813;28;20298;-67
2022/06/02 02:45:35;;;;;;;;;;;7.90;99.90;;;;;;5093104;28;19920;-65
2022/06/02 02:48:06;;;;;;;;;;;7.80;99.90;;;;;;5085649;28;20000;-66
2022/06/02 02:50:51;;;;;;;;;;;7.80;99.90;;;;;;5093927;28;19966;-66
2022/06/02 02:53:31;;;;;;;;;;;7.80;99.90;;;;;;5084867;28;20002;-66
2022/06/02 02:55:59;;;;;;;;;;;7.90;99.90;;;;;;5091801;28;19998;-66
2022/06/02 02:58:25;;;;;;;;;;;8.00;99.90;;;;;;5088192;28;19919;-67
2022/06/02 03:00:59;;;;;;;;;;;8.10;99.90;;;;;;5086115;28;19912;-65
2022/06/02 03:03:28;;;;;;;;;;;8.10;99.90;;;;;;5089627;28;20067;-65
2022/06/02 03:06:12;;;;;;;;;;;8.10;99.90;;;;;;5092228;28;19944;-66
2022/06/02 03:08:44;;;;;;;;;;;8.00;99.90;;;;;;5092469;28;20374;-65
2022/06/02 03:11:26;;;;;;;;;;;7.80;99.90;;;;;;5074534;28;20316;-66
2022/06/02 03:13:58;;;;;;;;;;;7.70;99.90;;;;;;5081570;28;20417;-65
2022/06/02 03:16:23;;;;;;;;;;;7.70;99.90;;;;;;5073679;28;20372;-65
2022/06/02 03:18:58;;;;;;;;;;;7.70;99.90;;;;;;5089325;28;19912;-64
2022/06/02 03:21:31;;;;;;;;;;;7.70;99.90;;;;;;5093562;28;20281;-65
2022/06/02 03:24:15;;;;;;;;;;;7.80;99.90;;;;;;5093322;28;19924;-65
2022/06/02 03:26:59;;;;;;;;;;;7.70;99.90;;;;;;5072961;28;19912;-67
2022/06/02 03:29:30;;;;;;;;;;;7.70;99.90;;;;;;5078187;28;19916;-67
2022/06/02 03:32:05;;;;;;;;;;;7.80;99.90;;;;;;5088626;28;19913;-68
2022/06/02 03:34:43;;;;;;;;;;;8.00;99.90;;;;;;5086988;28;19916;-66
2022/06/02 03:37:23;;;;;;;;;;;8.00;99.90;;;;;;5087333;28;19912;-67
2022/06/02 03:40:01;;;;;;;;;;;7.90;99.90;;;;;;5089419;28;20559;-68
2022/06/02 03:42:32;;;;;;;;;;;7.80;99.90;;;;;;5093196;28;19923;-67
2022/06/02 03:45:04;;;;;;;;;;;7.70;99.90;;;;;;5093203;28;19916;-68
2022/06/02 03:47:29;;;;;;;;;;;7.70;99.90;;;;;;5090100;28;20258;-68
2022/06/02 03:50:13;;;;;;;;;;;7.70;99.90;;;;;;5087864;28;19916;-67
2022/06/02 03:52:47;;;;;;;;;;;7.60;99.90;;;;;;5092230;28;20285;-66
2022/06/02 03:55:20;;;;;;;;;;;7.60;99.90;;;;;;5065450;28;19962;-68
2022/06/02 03:57:52;;;;;;;;;;;7.60;99.90;;;;;;5087218;28;20371;-67
2022/06/02 04:00:20;;;;;;;;;;;7.70;99.90;;;;;;5087040;28;20259;-67
2022/06/02 04:03:02;;;;;;;;;;;7.80;99.90;;;;;;5088516;28;19942;-69
2022/06/02 04:05:27;;;;;;;;;;;7.70;99.90;;;;;;5085051;28;20307;-68
2022/06/02 04:08:25;;;;;;;;;;;7.70;99.90;;;;;;5086163;28;19917;-68
2022/06/02 04:10:56;;;;;;;;;;;7.70;99.90;;;;;;5055659;28;20423;-67
2022/06/02 04:13:37;;;;;;;;;;;7.60;99.90;;;;;;5084277;28;20388;-67
2022/06/02 04:16:18;;;;;;;;;;;7.60;99.90;;;;;;5091030;28;19912;-67
2022/06/02 04:20:34;;;;;;;;;;;7.60;99.90;;;;;;5091362;28;19916;-68
2022/06/02 04:21:51;;;;;;;;;;;7.50;99.90;;;;;;5081237;28;20727;-67
2022/06/02 04:24:25;;;;;;;;;;;7.50;99.90;;;;;;5089701;28;19920;-68
2022/06/02 04:27:26;;;;;;;;;;;7.60;99.90;;;;;;5067423;28;19912;-68
2022/06/02 04:29:54;;;;;;;;;;;7.60;99.90;;;;;;4995029;28;20427;-67
2022/06/02 04:32:31;;;;;;;;;;;7.60;99.90;;;;;;5070376;28;19912;-67
2022/06/02 04:35:12;;;;;;;;;;;7.70;99.90;;;;;;5073277;28;19912;-67
2022/06/02 04:37:56;;;;;;;;;;;7.70;99.90;;;;;;5085744;28;20369;-68
2022/06/02 04:40:27;;;;;;;;;;;7.70;99.90;;;;;;5087776;28;19912;-67
2022/06/02 04:43:11;;;;;;;;;;;7.60;99.90;;;;;;5085442;28;19920;-68
2022/06/02 04:45:37;;;;;;;;;;;7.60;99.90;;;;;;5088254;28;20292;-68
2022/06/02 04:48:08;;;;;;;;;;;7.70;99.90;;;;;;5088708;28;19912;-68
2022/06/02 04:50:40;;;;;;;;;;;7.70;99.90;;;;;;5070866;28;19915;-67
2022/06/02 04:53:24;;;;;;;;;;;7.70;99.90;;;;;;5090220;28;19916;-67
2022/06/02 04:55:50;;;;;;;;;;;7.80;99.90;;;;;;5092213;28;19912;-67
2022/06/02 04:58:18;;;;;;;;;;;7.80;99.90;;;;;;5087637;28;19912;-67
2022/06/02 05:00:47;;;;;;;;;;;7.80;99.90;;;;;;5071855;28;19918;-67
2022/06/02 05:03:19;;;;;;;;;;;7.80;99.90;;;;;;5090532;28;19920;-68
2022/06/02 05:06:04;;;;;;;;;;;7.80;99.90;;;;;;5072955;28;19916;-68
2022/06/02 05:08:46;;;;;;;;;;;7.80;99.90;;;;;;5084609;28;19998;-68
2022/06/02 05:11:15;;;;;;;;;;;7.80;99.90;;;;;;5089612;28;19916;-68
2022/06/02 05:13:40;;;;;;;;;;;7.80;99.90;;;;;;5084940;28;19912;-67
2022/06/02 05:16:27;;;;;;;;;;;7.80;99.90;;;;;;5087281;28;19919;-67
2022/06/02 05:18:52;;;;;;;;;;;7.90;99.90;;;;;;5085623;28;19920;-68
2022/06/02 05:21:30;;;;;;;;;;;8.00;99.90;;;;;;5088347;28;20293;-68
2022/06/02 05:24:18;;;;;;;;;;;8.00;99.90;;;;;;5102790;28;19927;-68
2022/06/02 05:26:59;;;;;;;;;;;8.10;99.90;;;;;;5085093;28;19947;-68
2022/06/02 05:29:53;;;;;;;;;;;8.20;99.90;;;;;;5076211;28;19916;-67
2022/06/02 05:32:38;;;;;;;;;;;8.20;99.90;;;;;;5064371;28;20037;-67
2022/06/02 05:35:22;;;;;;;;;;;8.30;99.90;;;;;;5086415;28;19916;-68
2022/06/02 05:37:51;;;;;;;;;;;8.40;99.90;;;;;;5070495;28;19919;-68
2022/06/02 05:40:19;;;;;;;;;;;8.50;99.90;;;;;;5084407;28;20208;-68
2022/06/02 05:42:45;;;;;;;;;;;8.70;99.90;;;;;;5091532;28;20014;-68
2022/06/02 05:45:13;;;;;;;;;;;8.70;99.90;;;;;;5088971;28;19967;-68
2022/06/02 05:47:47;;;;;;;;;;;8.80;99.90;;;;;;5083050;28;20354;-68
2022/06/02 05:50:32;;;;;;;;;;;8.90;99.90;;;;;;5088420;28;19981;-67
2022/06/02 05:53:12;;;;;;;;;;;9.10;99.90;;;;;;5085219;28;20318;-68
2022/06/02 05:56:02;;;;;;;;;;;9.20;99.90;;;;;;5089183;28;19912;-67
2022/06/02 05:58:34;;;;;;;;;;;9.30;99.90;;;;;;5088073;28;20381;-69
2022/06/02 06:01:09;;;;;;;;;;;9.50;99.90;;;;;;5084388;28;20585;-69
2022/06/02 06:03:44;;;;;;;;;;;9.50;99.90;;;;;;5087847;28;19916;-67
2022/06/02 06:06:20;;;;;;;;;;;9.70;99.90;;;;;;5088213;28;19940;-66
2022/06/02 06:09:01;;;;;;;;;;;9.80;99.90;;;;;;5086052;28;19912;-67
2022/06/02 06:11:50;;;;;;;;;;;10.00;99.90;;;;;;5083286;28;19920;-66
2022/06/02 06:14:22;;;;;;;;;;;10.10;99.90;;;;;;5088862;28;19916;-68
2022/06/02 06:17:03;;;;;;;;;;;10.30;99.90;;;;;;5088810;28;19915;-68
2022/06/02 06:19:48;;;;;;;;;;;10.40;99.90;;;;;;5087432;28;19947;-66
2022/06/02 06:22:25;;;;;;;;;;;10.50;99.90;;;;;;5088722;28;20342;-68
2022/06/02 06:25:06;;;;;;;;;;;10.70;99.90;;;;;;5091858;28;19920;-67
2022/06/02 06:27:34;;;;;;;;;;;10.80;99.90;;;;;;5068001;28;20374;-68
2022/06/02 06:30:12;;;;;;;;;;;11.00;99.90;;;;;;5088368;28;19912;-66
2022/06/02 06:32:39;;;;;;;;;;;11.10;99.90;;;;;;5086127;28;20263;-68
2022/06/02 06:35:30;;;;;;;;;;;11.30;99.90;;;;;;5084271;28;19977;-67
2022/06/02 06:38:04;;;;;;;;;;;11.40;99.90;;;;;;5083608;28;19912;-67
2022/06/02 06:40:39;;;;;;;;;;;11.50;99.90;;;;;;5086786;28;19930;-67
2022/06/02 06:43:11;;;;;;;;;;;11.60;99.90;;;;;;5083815;28;20186;-68
2022/06/02 06:45:43;;;;;;;;;;;11.70;99.90;;;;;;5070001;28;19916;-68
2022/06/02 06:48:30;;;;;;;;;;;11.70;99.90;;;;;;5088920;28;19988;-67
2022/06/02 06:51:03;;;;;;;;;;;11.90;99.90;;;;;;5068725;28;20393;-67
2022/06/02 06:53:29;;;;;;;;;;;12.00;99.90;;;;;;5091851;28;19912;-66
2022/06/02 06:55:54;;;;;;;;;;;12.10;99.90;;;;;;5086814;28;19916;-67
2022/06/02 06:58:26;;;;;;;;;;;12.20;99.90;;;;;;5084866;28;20018;-68
2022/06/02 07:01:04;;;;;;;;;;;12.40;99.90;;;;;;5083874;28;20347;-67
2022/06/02 07:03:29;;;;;;;;;;;12.50;99.90;;;;;;5082778;28;19920;-68
2022/06/02 07:05:59;;;;;;;;;;;12.50;99.90;;;;;;5070525;28;19922;-67
2022/06/02 07:08:35;;;;;;;;;;;12.60;99.90;;;;;;5087166;28;19958;-68
2022/06/02 07:11:01;;;;;;;;;;;12.80;99.90;;;;;;5063125;28;19917;-69
2022/06/02 07:13:43;;;;;;;;;;;12.90;99.90;;;;;;5079466;28;19935;-68
2022/06/02 07:16:17;;;;;;;;;;;13.00;99.90;;;;;;5075331;28;19919;-68
2022/06/02 07:18:42;;;;;;;;;;;13.10;99.90;;;;;;5074075;28;19991;-67
2022/06/02 07:21:27;;;;;;;;;;;13.30;99.90;;;;;;5092568;28;19944;-68
2022/06/02 07:23:55;;;;;;;;;;;13.30;99.90;;;;;;5090023;28;20234;-69
2022/06/02 07:26:49;;;;;;;;;;;13.50;99.90;;;;;;5080482;28;19962;-68
2022/06/02 07:29:23;;;;;;;;;;;13.70;99.90;;;;;;5091544;28;19972;-66
2022/06/02 07:31:49;;;;;;;;;;;13.80;99.90;;;;;;5082616;28;19958;-68
2022/06/02 07:34:14;;;;;;;;;;;13.90;99.90;;;;;;5081431;28;20011;-69
2022/06/02 07:36:49;;;;;;;;;;;14.20;99.90;;;;;;5082136;28;20065;-67
2022/06/02 07:39:33;;;;;;;;;;;14.40;99.90;;;;;;5087706;28;19973;-67
2022/06/02 07:42:05;;;;;;;;;;;14.60;99.90;;;;;;5087607;28;19920;-67
2022/06/02 07:44:37;;;;;;;;;;;14.70;99.90;;;;;;5093255;28;20425;-68
2022/06/02 07:47:23;;;;;;;;;;;14.80;99.90;;;;;;5083001;28;20174;-67
2022/06/02 07:49:48;;;;;;;;;;;14.90;99.90;;;;;;5068287;28;19915;-69
2022/06/02 07:52:17;;;;;;;;;;;15.00;99.90;;;;;;5091043;28;19913;-68
2022/06/02 07:55:09;;;;;;;;;;;15.10;99.90;;;;;;5085466;28;19920;-68
2022/06/02 07:57:53;;;;;;;;;;;15.20;99.90;;;;;;5089765;28;19973;-68
2022/06/02 08:00:23;;;;;;;;;;;15.40;99.90;;;;;;5089610;28;19959;-68
2022/06/02 08:02:52;;;;;;;;;;;15.40;99.90;;;;;;5092988;28;20271;-68
2022/06/02 08:05:27;;;;;;;;;;;15.40;99.90;;;;;;5084321;28;19916;-69
2022/06/02 08:07:59;;;;;;;;;;;15.50;99.90;;;;;;5113191;28;19904;-68
2022/06/02 08:10:31;;;;;;;;;;;15.70;99.90;;;;;;5114316;28;19904;-68
2022/06/02 08:13:24;;;;;;;;;;;15.90;99.90;;;;;;5116636;28;19910;-67
2022/06/02 08:15:59;;;;;;;;;;;16.10;99.90;;;;;;5115128;28;19911;-69
2022/06/02 08:18:29;;;;;;;;;;;16.20;99.90;;;;;;5106231;28;19928;-69
2022/06/02 08:21:18;;;;;;;;;;;16.30;99.90;;;;;;5107413;28;19912;-69
2022/06/02 08:24:04;;;;;;;;;;;16.40;99.90;;;;;;5105955;28;20046;-68
2022/06/02 08:26:32;;;;;;;;;;;16.80;99.90;;;;;;5092431;28;19943;-70
2022/06/02 08:29:04;;;;;;;;;;;16.80;99.90;;;;;;5088035;28;19912;-69
2022/06/02 08:31:38;;;;;;;;;;;16.90;99.90;;;;;;5081888;28;19919;-70
2022/06/02 08:34:12;;;;;;;;;;;17.00;99.90;;;;;;5091405;28;20007;-69
2022/06/02 08:37:04;;;;;;;;;;;17.20;99.90;;;;;;5088904;28;19912;-69
2022/06/02 08:39:29;;;;;;;;;;;17.30;99.90;;;;;;5055024;28;19919;-68
2022/06/02 08:42:16;;;;;;;;;;;17.30;99.90;;;;;;5090043;28;19916;-69
2022/06/02 08:44:41;;;;;;;;;;;17.40;99.90;;;;;;5079390;28;20392;-70
2022/06/02 08:47:25;;;;;;;;;;;17.50;99.90;;;;;;5099836;28;19912;-69
2022/06/02 08:49:57;;;;;;;;;;;17.60;99.90;;;;;;5093955;28;20392;-69
2022/06/02 08:52:41;;;;;;;;;;;17.30;99.90;;;;;;5087678;28;19936;-68
2022/06/02 08:55:25;;;;;;;;;;;17.30;99.90;;;;;;5104580;28;19916;-69
2022/06/02 08:57:51;;;;;;;;;;;17.30;99.90;;;;;;5108772;28;19920;-68
2022/06/02 09:00:18;;;;;;;;;;;17.20;99.90;;;;;;5102083;28;19972;-68
2022/06/02 09:03:01;;;;;;;;;;;17.20;99.90;;;;;;5089138;28;19924;-68
2022/06/02 09:05:39;;;;;;;;;;;17.30;99.90;;;;;;5083977;28;19916;-68
2022/06/02 09:08:11;;;;;;;;;;;17.50;99.90;;;;;;5069185;28;19920;-68
2022/06/02 09:10:48;;;;;;;;;;;17.70;99.90;;;;;;5084551;28;19916;-68
2022/06/02 09:13:14;;;;;;;;;;;18.00;99.90;;;;;;5081997;28;19923;-68
2022/06/02 09:15:58;;;;;;;;;;;18.10;99.90;;;;;;5094519;28;19912;-67
2022/06/02 09:18:43;;;;;;;;;;;18.30;99.90;;;;;;5082954;28;19916;-68
2022/06/02 09:21:15;;;;;;;;;;;18.10;99.90;;;;;;5070748;28;19912;-73
2022/06/02 09:23:48;;;;;;;;;;;18.10;99.90;;;;;;5096739;28;19920;-74
2022/06/02 09:26:20;;;;;;;;;;;18.30;99.40;;;;;;5087767;28;19958;-72
2022/06/02 09:28:55;;;;;;;;;;;18.30;98.20;;;;;;5081516;28;19920;-71
2022/06/02 09:31:39;;;;;;;;;;;18.40;97.50;;;;;;5074278;28;19964;-71
2022/06/02 09:34:19;;;;;;;;;;;18.50;97.60;;;;;;5069648;28;19919;-73
2022/06/02 09:36:45;;;;;;;;;;;18.50;97.20;;;;;;5086017;28;19927;-67
2022/06/02 09:39:10;;;;;;;;;;;18.70;95.40;;;;;;5082838;28;20312;-71
2022/06/02 09:41:54;;;;;;;;;;;18.60;95.80;;;;;;5075865;28;19927;-71
2022/06/02 09:44:20;;;;;;;;;;;18.60;96.30;;;;;;5083168;28;19916;-69
2022/06/02 09:46:48;;;;;;;;;;;18.90;94.40;;;;;;5088749;28;19927;-68
2022/06/02 09:49:33;;;;;;;;;;;18.90;94.40;;;;;;5092345;28;20230;-69
2022/06/02 09:52:23;;;;;;;;;;;19.00;93.30;;;;;;5077253;28;19923;-70
2022/06/02 09:55:00;;;;;;;;;;;19.30;92.90;;;;;;5091995;28;20261;-68
2022/06/02 09:57:57;;;;;;;;;;;19.60;92.30;;;;;;5101952;28;19931;-70
2022/06/02 10:00:30;;;;;;;;;;;19.50;90.60;;;;;;5087695;28;19931;-72
2022/06/02 10:02:58;;;;;;;;;;;19.30;90.80;;;;;;5076320;28;19978;-75
2022/06/02 10:05:26;;;;;;;;;;;19.20;91.30;;;;;;5085798;28;19942;-69
2022/06/02 10:08:05;;;;;;;;;;;19.30;91.30;;;;;;5092603;28;19900;-71
2022/06/02 10:10:40;;;;;;;;;;;19.30;91.60;;;;;;5096563;28;19965;-72
2022/06/02 10:13:20;;;;;;;;;;;19.60;91.20;;;;;;5099264;28;19904;-69
2022/06/02 10:16:05;;;;;;;;;;;19.70;91.20;;;;;;5108929;28;19963;-71
2022/06/02 10:18:36;;;;;;;;;;;19.70;91.00;;;;;;5095067;28;20264;-69
2022/06/02 10:21:14;;;;;;;;;;;19.80;90.40;;;;;;5099608;28;19912;-71
2022/06/02 10:23:57;;;;;;;;;;;20.00;89.70;;;;;;5106769;28;20031;-68
2022/06/02 10:26:35;;;;;;;;;;;20.30;88.40;;;;;;5082993;28;20285;-72
2022/06/02 10:29:10;;;;;;;;;;;20.30;87.40;;;;;;5093292;28;20259;-70
2022/06/02 10:31:59;;;;;;;;;;;20.20;87.20;;;;;;5086873;28;20620;-69
2022/06/02 10:34:24;;;;;;;;;;;20.20;87.50;;;;;;5100563;28;19916;-68
2022/06/02 10:36:50;;;;;;;;;;;20.30;88.60;;;;;;5087709;28;19912;-72
2022/06/02 10:39:23;;;;;;;;;;;20.30;86.50;;;;;;5085622;28;19912;-70
2022/06/02 10:42:04;;;;;;;;;;;20.50;84.70;;;;;;5085539;28;19916;-70
2022/06/02 10:44:50;;;;;;;;;;;20.90;83.30;;;;;;5087100;28;19924;-69
2022/06/02 10:47:34;;;;;;;;;;;21.00;80.50;;;;;;5036648;28;19912;-71
2022/06/02 10:50:08;;;;;;;;;;;20.70;83.60;;;;;;5071000;28;20006;-72
2022/06/02 10:52:51;;;;;;;;;;;20.80;85.60;;;;;;5091243;28;19922;-75
2022/06/02 10:55:16;;;;;;;;;;;20.90;84.80;;;;;;5088173;28;19920;-70
2022/06/02 10:58:01;;;;;;;;;;;20.90;84.30;;;;;;5080528;28;19930;-71
2022/06/02 11:00:32;;;;;;;;;;;21.00;84.70;;;;;;5089783;28;19999;-71
2022/06/02 11:02:57;;;;;;;;;;;21.00;82.80;;;;;;5095292;28;19920;-67
2022/06/02 11:05:42;;;;;;;;;;;20.90;83.00;;;;;;5088401;28;19924;-68
2022/06/02 11:08:26;;;;;;;;;;;20.50;83.80;;;;;;5094910;28;19915;-69
2022/06/02 11:11:02;;;;;;;;;;;20.40;82.50;;;;;;5087738;28;19919;-70
2022/06/02 11:13:43;;;;;;;;;;;20.50;82.60;;;;;;5088756;28;19959;-68
2022/06/02 11:16:09;;;;;;;;;;;20.60;81.40;;;;;;5067407;28;19973;-70
2022/06/02 11:18:49;;;;;;;;;;;20.60;82.20;;;;;;5082129;28;20360;-68
2022/06/02 11:21:20;;;;;;;;;;;20.50;82.90;;;;;;5082584;28;19919;-65
2022/06/02 11:23:52;;;;;;;;;;;20.70;82.80;;;;;;5084966;28;19920;-68
2022/06/02 11:26:22;;;;;;;;;;;21.00;82.50;;;;;;5081333;28;20662;-69
2022/06/02 11:29:00;;;;;;;;;;;21.00;82.10;;;;;;5084310;28;20273;-69
2022/06/02 11:31:44;;;;;;;;;;;21.20;81.30;;;;;;5082118;28;19912;-70
2022/06/02 11:34:33;;;;;;;;;;;21.50;79.40;;;;;;5084293;28;20331;-69
2022/06/02 11:37:25;;;;;;;;;;;21.70;78.40;;;;;;5081897;28;19916;-70
2022/06/02 11:40:00;;;;;;;;;;;21.60;78.90;;;;;;5087399;28;20114;-72
2022/06/02 11:42:41;;;;;;;;;;;21.60;79.00;;;;;;5066362;28;19918;-69
2022/06/02 11:45:25;;;;;;;;;;;21.60;78.50;;;;;;5082742;28;20396;-69
2022/06/02 11:48:01;;;;;;;;;;;21.50;77.80;;;;;;5079984;28;19912;-72
2022/06/02 11:50:39;;;;;;;;;;;21.60;77.50;;;;;;5088967;28;19923;-71
2022/06/02 11:53:20;;;;;;;;;;;21.50;77.60;;;;;;5090646;28;20338;-71
2022/06/02 11:55:52;;;;;;;;;;;21.50;78.20;;;;;;5083737;28;19920;-69
2022/06/02 11:58:43;;;;;;;;;;;21.60;78.70;;;;;;5083290;28;19919;-70
2022/06/02 12:01:15;;;;;;;;;;;21.50;78.80;;;;;;5086114;28;20282;-69
2022/06/02 12:03:50;;;;;;;;;;;21.50;77.70;;;;;;5093610;28;20309;-69
2022/06/02 12:06:28;;;;;;;;;;;21.30;77.70;;;;;;5082039;28;19916;-70
2022/06/02 12:09:33;;;;;;;;;;;21.40;78.20;;;;;;5075372;28;19920;-70
2022/06/02 12:12:11;;;;;;;;;;;21.30;78.90;;;;;;5085067;28;19912;-73
2022/06/02 12:14:42;;;;;;;;;;;21.10;79.70;;;;;;5085813;28;20163;-72
2022/06/02 12:17:11;;;;;;;;;;;21.00;78.30;;;;;;5090840;28;20269;-72
2022/06/02 12:19:43;;;;;;;;;;;20.60;81.10;;;;;;5070483;28;20454;-70
2022/06/02 12:22:26;;;;;;;;;;;20.80;81.70;;;;;;5096739;28;19916;-68
2022/06/02 12:24:55;;;;;;;;;;;21.00;81.20;;;;;;5095359;28;19931;-69
2022/06/02 12:27:48;;;;;;;;;;;21.30;80.60;;;;;;5090145;28;19912;-69
2022/06/02 12:30:22;;;;;;;;;;;21.50;77.80;;;;;;5092061;28;19976;-70
2022/06/02 12:32:56;;;;;;;;;;;21.60;77.60;;;;;;5089478;28;19920;-69
2022/06/02 12:35:39;;;;;;;;;;;21.70;76.20;;;;;;5099183;28;19912;-69
2022/06/02 12:38:17;;;;;;;;;;;21.80;77.00;;;;;;5095482;28;20340;-68
2022/06/02 12:40:42;;;;;;;;;;;22.10;77.00;;;;;;5098997;28;19920;-68
2022/06/02 12:43:19;;;;;;;;;;;22.50;75.50;;;;;;5074994;28;20390;-69
2022/06/02 12:45:48;;;;;;;;;;;22.70;74.90;;;;;;5099125;28;19931;-69
2022/06/02 12:48:20;;;;;;;;;;;22.70;74.20;;;;;;5097438;28;19923;-69
2022/06/02 12:51:02;;;;;;;;;;;22.70;75.40;;;;;;5092735;28;20274;-69
2022/06/02 12:53:33;;;;;;;;;;;22.40;75.80;;;;;;5095155;28;19996;-71
2022/06/02 12:56:07;;;;;;;;;;;21.70;74.30;;;;;;5091264;28;19912;-69
2022/06/02 12:58:52;;;;;;;;;;;21.50;75.80;;;;;;5081555;28;19912;-69
2022/06/02 13:01:20;;;;;;;;;;;21.50;77.40;;;;;;5090982;28;19916;-68
2022/06/02 13:03:52;;;;;;;;;;;21.60;75.40;;;;;;5087643;28;19987;-68
2022/06/02 13:06:56;;;;;;;;;;;21.90;73.80;;;;;;5088129;28;19963;-69
2022/06/02 13:09:40;;;;;;;;;;;22.10;74.70;;;;;;5016288;28;19914;-68
2022/06/02 13:12:12;;;;;;;;;;;22.00;74.70;;;;;;5002478;28;20227;-69
2022/06/02 13:14:56;;;;;;;;;;;22.20;75.00;;;;;;5059203;28;19964;-71
2022/06/02 13:17:28;;;;;;;;;;;22.20;75.50;;;;;;5068632;28;20389;-69
2022/06/02 13:20:07;;;;;;;;;;;22.40;72.80;;;;;;5074501;28;19916;-70
2022/06/02 13:22:35;;;;;;;;;;;22.30;72.90;;;;;;5087482;28;19912;-70
2022/06/02 13:25:01;;;;;;;;;;;22.30;73.90;;;;;;5096897;28;19928;-69
2022/06/02 13:27:45;;;;;;;;;;;22.20;72.70;;;;;;5091690;28;19996;-69
2022/06/02 13:30:11;;;;;;;;;;;22.00;74.60;;;;;;5087201;28;19912;-69
2022/06/02 13:32:36;;;;;;;;;;;21.60;75.00;;;;;;5091903;28;19908;-67
2022/06/02 13:35:21;;;;;;;;;;;21.40;74.30;;;;;;5073569;28;19912;-71
2022/06/02 13:37:52;;;;;;;;;;;21.50;75.70;;;;;;5086127;28;19967;-69
2022/06/02 13:40:18;;;;;;;;;;;21.80;74.80;;;;;;5099091;28;19919;-69
2022/06/02 13:42:49;;;;;;;;;;;21.90;73.90;;;;;;5096954;28;19924;-71
2022/06/02 13:45:27;;;;;;;;;;;21.70;75.10;;;;;;5086777;28;19908;-70
2022/06/02 13:48:21;;;;;;;;;;;21.80;75.00;;;;;;5091555;28;20363;-70
2022/06/02 13:51:20;;;;;;;;;;;21.80;74.60;;;;;;5094914;28;19909;-70
2022/06/02 13:59:23;;;;;;;;;;;21.80;75.40;;;;;;5092967;28;19981;-70
2022/06/02 14:01:58;;;;;;;;;;;21.60;75.40;;;;;;5096014;28;19912;-71
2022/06/02 14:04:42;;;;;;;;;;;21.60;75.40;;;;;;5085517;28;19920;-71
2022/06/02 14:07:30;;;;;;;;;;;21.40;75.40;;;;;;5078462;28;19951;-71
2022/06/02 14:09:55;;;;;;;;;;;21.60;76.00;;;;;;5084997;28;19928;-70
2022/06/02 14:12:30;;;;;;;;;;;21.70;74.60;;;;;;5088806;28;19943;-69
2022/06/02 14:15:14;;;;;;;;;;;21.90;74.40;;;;;;5083888;28;19916;-70
2022/06/02 14:17:55;;;;;;;;;;;22.10;73.10;;;;;;5089915;28;20028;-69
2022/06/02 14:20:28;;;;;;;;;;;22.00;73.40;;;;;;5086148;28;20003;-70
2022/06/02 14:23:09;;;;;;;;;;;22.10;72.30;;;;;;5084678;28;19969;-71
2022/06/02 14:25:52;;;;;;;;;;;22.30;72.90;;;;;;5095478;28;19982;-71
2022/06/02 14:28:21;;;;;;;;;;;22.50;72.50;;;;;;5085452;28;19924;-71
2022/06/02 14:31:01;;;;;;;;;;;22.70;72.20;;;;;;5071052;28;19912;-71
2022/06/02 14:33:31;;;;;;;;;;;22.70;72.10;;;;;;5100326;28;20376;-71
2022/06/02 14:36:13;;;;;;;;;;;22.60;72.30;;;;;;5092986;28;19934;-72
2022/06/02 14:38:44;;;;;;;;;;;22.60;70.50;;;;;;5093868;28;20222;-72
2022/06/02 14:41:18;;;;;;;;;;;22.70;70.40;;;;;;5077807;28;20281;-73
2022/06/02 14:43:46;;;;;;;;;;;22.40;71.00;;;;;;5090567;28;20297;-72
2022/06/02 14:46:18;;;;;;;;;;;23.00;69.80;;;;;;5077110;28;20274;-69
2022/06/02 14:48:43;;;;;;;;;;;23.30;68.20;;;;;;5077806;28;19919;-71
2022/06/02 14:51:20;;;;;;;;;;;23.60;67.50;;;;;;5089805;28;19916;-70
2022/06/02 14:54:03;;;;;;;;;;;23.80;67.70;;;;;;5097163;28;19912;-70
2022/06/02 14:56:37;;;;;;;;;;;23.90;67.60;;;;;;5098484;28;19991;-69
2022/06/02 14:59:03;;;;;;;;;;;23.80;66.50;;;;;;5104189;28;19924;-68
2022/06/02 15:01:29;;;;;;;;;;;23.50;66.20;;;;;;5098603;28;19911;-69
2022/06/02 15:04:15;;;;;;;;;;;23.00;67.20;;;;;;5084355;28;19924;-68
2022/06/02 15:07:01;;;;;;;;;;;23.10;68.20;;;;;;5081569;28;19916;-68
2022/06/02 15:09:36;;;;;;;;;;;23.50;67.10;;;;;;5087752;28;19931;-69
2022/06/02 15:12:11;;;;;;;;;;;23.20;67.40;;;;;;5090914;28;19924;-70
2022/06/02 15:14:56;;;;;;;;;;;23.30;67.50;;;;;;5097879;28;19901;-69
2022/06/02 15:18:00;;;;;;;;;;;23.40;68.20;;;;;;5095257;28;19956;-71
2022/06/02 15:20:44;;;;;;;;;;;23.40;68.20;;;;;;4981993;28;19922;-70
2022/06/02 15:23:28;;;;;;;;;;;23.90;66.80;;;;;;4987648;28;19957;-70